Terminal Aerodrome Forecast
Issued by NWS

Home | Current Version | Previous Version | Text Only | Print | Product List | Glossary On
Versions: 1 2 3 4 5 6 7 8 9 10 11 12 13 14 15 16 17 18 19 20
245
FTUS43 KLSX 261130
TAFSUS
TAF
KSUS 261130Z 2612/2712 22006KT P6SM OVC012
     FM261800 24006KT P6SM BKN020
     FM262000 24006KT P6SM BKN040
     FM271000 VRB03KT P6SM OVC030=

USA.gov is the U.S. government's official web portal to all federal, state and local government web resources and services.